Time;durP1;ratioP1;P1;durP2;ratioP2;P2;SDS_P1;SDS_P2;PMS_P1;PMS_P2;Temp;Humidity;BMP_temperature;BMP_pressure;BME280_temperature;BME280_humidity;BME280_pressure;Samples;Min_cycle;Max_cycle;Signal;HPM_P1;HPM_P2
2023/01/14 00:01:28;;;;;;;3.90;3.60;;;;;;;6.72;89.43;99594.25;4439584;32;35290;-84
2023/01/14 00:03:57;;;;;;;4.70;3.33;;;;;;;6.45;90.83;99613.84;4439468;32;34259;-84
2023/01/14 00:06:31;;;;;;;2.83;2.62;;;;;;;6.37;92.07;99600.84;4425724;32;33983;-84
2023/01/14 00:09:02;;;;;;;1.95;1.85;;;;;;;6.90;89.59;99597.03;4439378;32;35160;-69
2023/01/14 00:14:21;;;;;;;4.40;4.05;;;;;;;7.75;82.59;99598.44;4439557;32;34164;-84
2023/01/14 00:16:51;;;;;;;1.08;1.08;;;;;;;7.63;82.39;99600.09;4439422;32;33999;-69
2023/01/14 00:19:21;;;;;;;2.85;2.47;;;;;;;7.06;85.56;99610.06;4439365;32;34256;-69
2023/01/14 00:21:50;;;;;;;0.98;0.98;;;;;;;7.54;82.35;99595.72;4439378;32;35072;-71
2023/01/14 00:24:19;;;;;;;1.15;1.15;;;;;;;7.62;80.47;99598.34;4439451;32;33456;-84
2023/01/14 00:26:50;;;;;;;2.53;2.33;;;;;;;6.99;83.10;99596.22;4439461;32;34735;-84
2023/01/14 00:29:22;;;;;;;2.58;2.37;;;;;;;5.98;87.66;99601.25;4439096;32;34389;-84
2023/01/14 00:31:54;;;;;;;1.62;1.37;;;;;;;6.07;88.58;99607.41;4439221;32;35190;-83
2023/01/14 00:34:23;;;;;;;16.15;5.78;;;;;;;6.32;87.57;99602.50;4439318;32;34372;-84
2023/01/14 00:36:51;;;;;;;1.27;1.27;;;;;;;6.27;87.28;99599.00;4425880;32;34026;-84
2023/01/14 00:39:21;;;;;;;1.35;1.30;;;;;;;6.07;88.35;99609.09;4439319;32;35924;-68
2023/01/14 00:41:49;;;;;;;2.78;2.58;;;;;;;6.07;88.37;99604.81;4439422;32;35223;-81
2023/01/14 00:44:19;;;;;;;3.60;3.30;;;;;;;6.54;85.12;99602.72;4439632;32;33532;-85
2023/01/14 00:46:48;;;;;;;3.33;3.03;;;;;;;6.20;86.77;99612.72;4439165;32;33591;-85
2023/01/14 00:49:20;;;;;;;1.73;1.58;;;;;;;6.09;88.26;99610.00;4439130;32;35110;-84
2023/01/14 00:51:49;;;;;;;2.95;2.62;;;;;;;6.82;84.54;99603.84;4439153;32;34465;-75
2023/01/14 00:54:18;;;;;;;2.00;1.80;;;;;;;6.61;84.03;99607.97;4439548;32;34155;-84
2023/01/14 00:56:48;;;;;;;4.20;3.90;;;;;;;6.43;86.58;99607.78;4439183;32;33978;-84
2023/01/14 00:59:23;;;;;;;1.98;1.87;;;;;;;6.28;87.48;99605.91;4425370;32;35122;-84
2023/01/14 01:01:54;;;;;;;1.77;1.23;;;;;;;6.18;87.34;99607.53;4439377;32;34322;-83
2023/01/14 01:04:24;;;;;;;2.72;2.53;;;;;;;6.37;86.32;99612.87;4438974;32;33365;-84
2023/01/14 01:06:52;;;;;;;1.62;1.52;;;;;;;6.72;85.09;99607.19;4438985;32;34765;-84
2023/01/14 01:09:20;;;;;;;3.22;2.92;;;;;;;5.88;88.30;99606.28;4438956;32;35733;-83
2023/01/14 01:11:48;;;;;;;2.05;1.90;;;;;;;5.51;91.53;99605.78;4439009;32;34562;-84
2023/01/14 01:14:17;;;;;;;7.12;2.70;;;;;;;5.00;94.92;99605.91;4438977;32;34395;-84
2023/01/14 01:16:45;;;;;;;6.93;3.92;;;;;;;4.95;96.07;99603.22;4438249;32;33808;-84
2023/01/14 01:19:13;;;;;;;1.95;1.85;;;;;;;4.87;96.91;99615.13;4439119;32;36045;-85
2023/01/14 01:21:42;;;;;;;4.65;2.67;;;;;;;4.96;96.94;99606.66;4438841;32;34480;-84
2023/01/14 01:24:10;;;;;;;2.75;2.55;;;;;;;5.33;94.60;99615.88;4438780;32;33297;-84
2023/01/14 01:26:40;;;;;;;7.32;6.65;;;;;;;6.32;88.94;99611.97;4438734;32;34090;-69
2023/01/14 01:29:08;;;;;;;6.68;3.20;;;;;;;5.97;88.88;99609.88;4438618;32;35070;-78
2023/01/14 01:31:36;;;;;;;2.35;1.67;;;;;;;6.24;88.20;99607.56;4438794;32;34503;-85
2023/01/14 01:34:06;;;;;;;3.22;1.67;;;;;;;5.44;90.59;99622.06;4438898;32;32858;-85
2023/01/14 01:36:35;;;;;;;2.95;2.75;;;;;;;6.42;85.61;99609.53;4438596;32;34653;-83
2023/01/14 01:39:05;;;;;;;3.00;2.28;;;;;;;6.49;83.71;99610.44;4438596;32;34668;-85
2023/01/14 01:41:33;;;;;;;1.95;1.30;;;;;;;5.65;87.34;99615.47;4438563;32;35316;-85
2023/01/14 01:44:01;;;;;;;5.25;4.15;;;;;;;5.51;88.99;99626.47;4438587;32;33574;-68
2023/01/14 01:46:30;;;;;;;3.47;3.15;;;;;;;6.18;85.38;99614.44;4438761;32;33789;-72
2023/01/14 01:49:15;;;;;;;1.52;1.42;;;;;;;5.99;84.36;99610.75;4438422;32;36172;-85
2023/01/14 01:51:50;;;;;;;1.40;1.30;;;;;;;5.74;85.42;99610.41;4438392;32;35169;-85
2023/01/14 01:54:21;;;;;;;8.88;4.43;;;;;;;5.02;89.02;99610.22;4438754;32;33591;-85
2023/01/14 01:56:50;;;;;;;5.32;3.65;;;;;;;5.83;84.64;99618.28;4424437;32;34556;-69
2023/01/14 01:59:23;;;;;;;2.28;1.73;;;;;;;5.89;84.48;99622.63;4424857;32;35861;-85
2023/01/14 02:01:55;;;;;;;0.98;0.90;;;;;;;5.76;84.89;99619.03;4438331;32;34511;-69
2023/01/14 02:04:23;;;;;;;4.05;3.45;;;;;;;4.82;87.01;99614.19;4438400;32;33413;-84
2023/01/14 02:06:51;;;;;;;1.08;0.95;;;;;;;4.34;91.91;99608.19;4438487;32;33992;-83
2023/01/14 02:09:20;;;;;;;3.05;2.80;;;;;;;4.66;90.61;99621.69;4438139;32;35851;-84
2023/01/14 02:11:51;;;;;;;1.02;0.70;;;;;;;4.77;90.09;99621.00;4424278;32;34557;-85
2023/01/14 02:14:47;;;;;;;1.20;1.20;;;;;;;4.96;89.71;99620.47;4438242;32;33498;-68
2023/01/14 02:17:28;;;;;;;1.80;1.73;;;;;;;4.70;91.21;99620.87;4437989;32;35224;-84
2023/01/14 02:20:10;;;;;;;2.22;1.37;;;;;;;4.66;92.15;99624.25;4438205;32;35904;-69
2023/01/14 02:22:55;;;;;;;2.42;1.92;;;;;;;4.92;91.02;99614.38;4438065;32;34529;-83
2023/01/14 02:25:38;;;;;;;5.22;3.80;;;;;;;5.56;89.07;99617.88;4424295;32;34550;-78
2023/01/14 02:28:44;;;;;;;2.65;2.47;;;;;;;5.69;85.40;99619.81;4425602;32;34702;-79
2023/01/14 02:32:02;;;;;;;1.12;1.08;;;;;;;6.02;84.80;99618.56;4439883;32;35108;-78
2023/01/14 02:34:40;;;;;;;1.12;1.12;;;;;;;5.29;87.42;99625.28;4430890;32;34519;-82
2023/01/14 02:37:38;;;;;;;2.10;1.55;;;;;;;5.37;86.45;99630.56;4426419;32;34365;-85
2023/01/14 02:40:20;;;;;;;2.03;1.85;;;;;;;6.05;82.72;99618.56;4426692;32;33896;-85
2023/01/14 02:45:56;;;;;;;3.03;1.77;;;;;;;5.86;82.41;99628.66;4428777;32;35294;-83
2023/01/14 02:48:25;;;;;;;2.72;1.92;;;;;;;5.51;82.96;99626.47;4440188;32;33562;-85
2023/01/14 02:50:53;;;;;;;1.12;1.12;;;;;;;4.81;87.27;99626.22;4426084;32;33894;-84
2023/01/14 02:53:21;;;;;;;1.27;1.27;;;;;;;5.12;85.90;99629.31;4426129;32;35933;-71
2023/01/14 02:55:50;;;;;;;1.20;1.10;;;;;;;4.84;86.88;99635.72;4439798;32;34454;-76
2023/01/14 02:58:48;;;;;;;2.10;1.95;;;;;;;5.60;83.30;99646.38;4426297;32;33454;-84
2023/01/14 03:01:54;;;;;;;4.45;4.15;;;;;;;5.78;81.34;99650.06;4440098;32;33771;-85
2023/01/14 03:04:37;;;;;;;1.15;1.15;;;;;;;5.08;84.15;99646.47;4439889;32;35040;-76
2023/01/14 03:07:29;;;;;;;4.22;1.67;;;;;;;5.02;84.69;99640.34;4426582;32;35391;-85
2023/01/14 03:10:21;;;;;;;0.68;0.68;;;;;;;4.78;86.16;99648.50;4433274;32;33253;-85
2023/01/14 03:13:12;;;;;;;1.73;1.58;;;;;;;3.89;91.73;99647.69;4426581;32;34698;-69
2023/01/14 03:15:48;;;;;;;1.00;1.00;;;;;;;3.76;95.41;99656.84;4440097;32;35985;-69
2023/01/14 03:18:25;;;;;;;2.20;2.08;;;;;;;3.74;94.47;99655.94;4426026;32;35283;-85
2023/01/14 03:21:18;;;;;;;0.70;0.70;;;;;;;3.33;98.18;99661.88;4440290;32;33688;-85
2023/01/14 03:23:55;;;;;;;0.93;0.93;;;;;;;3.53;99.20;99659.78;4413847;32;33887;-85
2023/01/14 03:26:23;;;;;;;;;;;;;;;3.67;97.45;99656.63;4440118;32;35033;-84
2023/01/14 03:28:54;;;;;;;0.88;0.88;;;;;;;3.76;97.76;99656.84;4426433;32;34755;-85
2023/01/14 03:31:25;;;;;;;2.15;2.03;;;;;;;3.98;95.69;99661.59;4426288;32;33552;-84
2023/01/14 03:33:58;;;;;;;3.65;2.05;;;;;;;4.75;92.50;99665.69;4439938;32;34642;-84
2023/01/14 03:36:29;;;;;;;1.62;1.52;;;;;;;4.91;89.61;99663.38;4425941;32;35090;-85
2023/01/14 03:39:02;;;;;;;1.70;1.55;;;;;;;4.48;90.65;99657.44;4425571;32;34324;-85
2023/01/14 03:44:31;;;;;;;3.30;2.87;;;;;;;4.91;87.64;99663.38;4439774;32;34038;-72
2023/01/14 03:46:59;;;;;;;1.30;1.20;;;;;;;4.86;87.97;99672.75;4425843;32;35975;-85
2023/01/14 03:49:28;;;;;;;3.80;2.00;;;;;;;5.19;85.04;99669.88;4425878;32;34482;-84
2023/01/14 03:52:01;;;;;;;4.07;3.37;;;;;;;5.23;84.52;99670.78;4425721;32;33442;-85
2023/01/14 03:54:34;;;;;;;1.05;1.05;;;;;;;4.65;86.78;99671.50;4425932;32;34546;-72
2023/01/14 03:57:02;;;;;;;6.20;2.37;;;;;;;4.51;87.57;99678.12;4439469;32;36018;-84
2023/01/14 04:00:14;;;;;;;2.83;2.35;;;;;;;4.48;88.27;99673.78;4439615;32;34387;-69
2023/01/14 04:02:44;;;;;;;3.03;2.83;;;;;;;4.23;89.67;99676.72;4397280;32;33997;-85
2023/01/14 04:05:12;;;;;;;1.92;1.83;;;;;;;3.52;94.82;99676.06;4425532;32;33917;-68
2023/01/14 04:07:40;;;;;;;1.40;1.37;;;;;;;3.86;94.76;99678.50;4425810;32;35118;-85
2023/01/14 04:10:09;;;;;;;1.80;1.67;;;;;;;3.46;95.33;99673.34;4439418;32;35381;-79
2023/01/14 04:15:20;;;;;;;0.62;0.62;;;;;;;3.58;94.81;99672.75;4439536;32;33646;-85
2023/01/14 04:15:26;;;;;;;1.10;1.10;;;;;;;4.24;93.06;99676.75;4439582;32;33805;-85
2023/01/14 04:17:54;;;;;;;1.27;1.27;;;;;;;4.92;87.31;99680.56;4439202;32;35037;-68
2023/01/14 04:20:22;;;;;;;0.82;0.82;;;;;;;5.44;81.90;99681.44;4439446;32;34623;-84
2023/01/14 04:22:51;;;;;;;1.10;1.10;;;;;;;5.26;81.54;99678.59;4439723;32;33463;-72
2023/01/14 04:25:19;;;;;;;1.23;1.23;;;;;;;4.91;81.75;99684.88;4439267;32;34686;-74
2023/01/14 04:27:47;;;;;;;1.37;1.35;;;;;;;4.68;83.52;99681.03;4439686;32;34707;-85
2023/01/14 04:30:16;;;;;;;0.68;0.68;;;;;;;4.89;82.37;99690.88;4439071;32;35158;-85
2023/01/14 04:32:44;;;;;;;8.52;2.90;;;;;;;3.58;87.50;99686.50;4439233;32;33681;-84
2023/01/14 04:35:12;;;;;;;0.70;0.70;;;;;;;3.57;89.02;99679.59;4439554;32;34401;-84
2023/01/14 04:37:40;;;;;;;0.98;0.98;;;;;;;3.29;89.96;99687.53;4439236;32;35145;-84
2023/01/14 04:40:09;;;;;;;23.08;7.10;;;;;;;2.90;92.91;99699.44;4439259;32;34534;-83
2023/01/14 04:42:37;;;;;;;3.28;2.97;;;;;;;2.61;96.60;99703.78;4439210;32;33613;-85
2023/01/14 04:45:06;;;;;;;0.60;0.60;;;;;;;3.34;93.32;99709.09;4439080;32;33938;-84
2023/01/14 04:47:35;;;;;;;1.08;1.08;;;;;;;3.60;87.37;99699.41;4439230;32;35016;-84
2023/01/14 04:50:30;;;;;;;0.80;0.80;;;;;;;3.84;87.00;99704.25;4438143;32;35318;-68
2023/01/14 04:52:52;;;;;;;0.60;0.60;;;;;;;3.85;85.21;99703.41;4439046;32;33469;-84
2023/01/14 04:55:20;;;;;;;1.48;0.93;;;;;;;3.13;87.64;99712.88;4439098;32;34741;-85
2023/01/14 04:57:48;;;;;;;1.10;1.10;;;;;;;3.16;86.90;99712.06;4439123;32;35080;-85
2023/01/14 05:00:17;;;;;;;1.02;1.02;;;;;;;3.09;86.19;99713.63;4439102;32;35317;-85
2023/01/14 05:02:45;;;;;;;8.20;4.22;;;;;;;2.80;87.20;99718.00;4439292;32;33463;-85
2023/01/14 05:05:13;;;;;;;0.82;0.82;;;;;;;2.69;86.77;99715.16;4438885;32;34756;-79
2023/01/14 05:07:41;;;;;;;0.93;0.93;;;;;;;2.55;88.09;99716.50;4439017;32;35133;-84
2023/01/14 05:10:10;;;;;;;0.82;0.82;;;;;;;2.92;85.43;99712.34;4439177;32;34585;-74
2023/01/14 05:12:38;;;;;;;4.97;2.05;;;;;;;2.65;88.26;99719.34;4439018;32;33529;-85
2023/01/14 05:15:07;;;;;;;1.67;1.60;;;;;;;2.91;87.33;99710.56;4439224;32;33753;-85
2023/01/14 05:17:35;;;;;;;1.40;1.40;;;;;;;3.57;83.69;99714.78;4438906;32;35916;-82
2023/01/14 05:20:03;;;;;;;0.90;0.90;;;;;;;3.25;83.67;99720.03;4438777;32;35265;-75
2023/01/14 05:22:32;;;;;;;1.35;1.35;;;;;;;3.21;84.09;99726.81;4438902;32;33585;-76
2023/01/14 05:25:00;;;;;;;1.80;1.70;;;;;;;3.13;84.89;99714.59;4438693;32;34594;-83
2023/01/14 05:27:28;;;;;;;4.62;3.58;;;;;;;2.85;85.50;99721.59;4438838;32;35996;-85
2023/01/14 05:29:56;;;;;;;1.23;1.12;;;;;;;3.20;83.97;99727.63;4438485;32;34338;-85
2023/01/14 05:32:24;;;;;;;2.67;2.53;;;;;;;3.45;83.61;99719.66;4438787;32;33583;-74
2023/01/14 05:34:52;;;;;;;1.67;1.58;;;;;;;3.96;80.04;99724.25;4438699;32;33988;-69
2023/01/14 05:37:21;;;;;;;0.95;0.95;;;;;;;4.08;78.24;99732.25;4438532;32;35084;-75
2023/01/14 05:39:49;;;;;;;1.87;1.70;;;;;;;3.55;80.21;99725.06;4438633;32;34402;-88
2023/01/14 05:47:52;;;;;;;1.27;1.23;;;;;;;3.22;84.07;99733.69;4438441;32;35925;-78
2023/01/14 05:50:20;;;;;;;4.00;1.42;;;;;;;3.43;83.09;99732.47;4438580;32;35242;-88
2023/01/14 05:52:48;;;;;;;0.80;0.80;;;;;;;3.56;81.25;99731.94;4438443;32;33785;-87
2023/01/14 05:55:16;;;;;;;1.90;1.80;;;;;;;3.08;83.20;99734.19;4438528;32;34730;-87
2023/01/14 05:57:45;;;;;;;1.83;1.73;;;;;;;2.76;84.81;99740.22;4438278;32;35011;-86
2023/01/14 06:06:20;;;;;;;0.80;0.80;;;;;;;3.22;84.91;99740.53;4438465;32;34446;-82
2023/01/14 06:08:36;;;;;;;8.98;6.37;;;;;;;2.84;85.47;99761.88;4440243;32;35753;-71
2023/01/14 06:11:04;;;;;;;1.42;1.40;;;;;;;2.79;85.14;99757.44;4440537;32;34497;-68
2023/01/14 06:13:34;;;;;;;1.85;1.75;;;;;;;3.37;81.69;99765.78;4440587;32;33578;-83
2023/01/14 06:16:06;;;;;;;1.20;1.20;;;;;;;3.41;82.53;99776.19;4440286;32;33224;-76
2023/01/14 06:18:41;;;;;;;1.42;1.42;;;;;;;3.51;83.67;99776.41;4440282;32;35918;-84
2023/01/14 06:21:12;;;;;;;0.97;0.97;;;;;;;3.53;82.71;99780.78;4440077;32;34213;-68
2023/01/14 06:23:41;;;;;;;0.70;0.70;;;;;;;3.36;83.50;99779.50;4440362;32;33487;-90
2023/01/14 06:26:18;;;;;;;1.08;1.08;;;;;;;3.33;84.15;99779.41;4440187;32;34839;-79
2023/01/14 06:28:46;;;;;;;1.45;1.35;;;;;;;3.36;84.28;99772.63;4440083;32;34936;-83
2023/01/14 06:31:17;;;;;;;1.37;1.27;;;;;;;3.10;85.52;99774.53;4439903;32;35311;-83
2023/01/14 06:33:46;;;;;;;0.90;0.90;;;;;;;3.19;86.55;99782.53;4426377;32;34431;-68
2023/01/14 06:36:14;;;;;;;0.90;0.90;;;;;;;3.41;84.28;99771.06;4440005;32;34706;-82
2023/01/14 06:38:42;;;;;;;3.62;3.42;;;;;;;3.41;84.70;99772.75;4440009;32;35151;-84
2023/01/14 06:41:11;;;;;;;0.80;0.80;;;;;;;3.76;83.46;99771.03;4440053;32;34522;-85
2023/01/14 06:43:41;;;;;;;1.80;1.70;;;;;;;3.73;81.93;99777.81;4440180;32;34632;-84
2023/01/14 06:46:11;;;;;;;1.65;1.55;;;;;;;3.29;84.21;99775.91;4440128;32;33019;-73
2023/01/14 06:48:41;;;;;;;3.72;3.42;;;;;;;3.71;82.64;99779.50;4440059;32;34215;-73
2023/01/14 06:51:15;;;;;;;0.80;0.80;;;;;;;3.67;81.74;99785.38;4439998;32;35205;-71
2023/01/14 06:53:44;;;;;;;0.95;0.95;;;;;;;3.61;81.17;99786.13;4439985;32;33618;-71
2023/01/14 06:56:17;;;;;;;0.85;0.85;;;;;;;3.44;81.66;99780.53;4440279;32;34323;-84
2023/01/14 06:58:49;;;;;;;1.48;1.42;;;;;;;2.72;87.17;99788.91;4439875;32;35146;-68
2023/01/14 07:01:18;;;;;;;3.72;1.73;;;;;;;3.27;84.48;99784.41;4440211;32;34496;-84
2023/01/14 07:03:47;;;;;;;1.12;1.02;;;;;;;3.43;82.86;99783.97;4439908;32;34197;-83
2023/01/14 07:06:15;;;;;;;0.80;0.80;;;;;;;3.14;87.71;99791.81;4439863;32;33908;-80
2023/01/14 07:08:43;;;;;;;4.37;2.75;;;;;;;2.96;89.65;99799.03;4439765;32;35037;-78
2023/01/14 07:11:12;;;;;;;1.85;1.75;;;;;;;3.34;88.71;99804.34;4439780;32;34440;-81
2023/01/14 07:13:40;;;;;;;1.83;1.62;;;;;;;2.86;90.35;99800.50;4439159;32;33340;-86
2023/01/14 07:16:08;;;;;;;0.95;0.95;;;;;;;3.14;89.42;99802.13;4439873;32;33884;-69
2023/01/14 07:18:37;;;;;;;1.05;1.05;;;;;;;3.33;88.86;99807.72;4439759;32;35247;-83
2023/01/14 07:21:05;;;;;;;1.73;1.62;;;;;;;3.83;86.46;99810.72;4439829;32;34186;-78
2023/01/14 07:23:33;;;;;;;0.73;0.73;;;;;;;3.45;91.42;99807.19;4439794;32;33489;-86
2023/01/14 07:26:02;;;;;;;5.93;1.60;;;;;;;3.97;91.85;99800.69;4439697;32;33755;-86
2023/01/14 07:28:32;;;;;;;1.20;1.10;;;;;;;4.19;89.54;99814.97;4439703;32;35132;-85
2023/01/14 07:31:06;;;;;;;0.85;0.85;;;;;;;4.61;88.34;99814.16;4439570;32;35345;-84
2023/01/14 07:33:35;;;;;;;0.70;0.70;;;;;;;4.80;87.55;99809.34;4439682;32;34382;-69
2023/01/14 07:36:03;;;;;;;0.60;0.60;;;;;;;4.84;88.84;99811.19;4439966;32;33821;-86
2023/01/14 07:38:32;;;;;;;0.82;0.82;;;;;;;4.86;86.76;99805.19;4439651;32;35102;-85
2023/01/14 07:41:00;;;;;;;2.90;2.67;;;;;;;4.70;86.20;99814.34;4439634;32;34393;-86
2023/01/14 07:43:28;;;;;;;2.15;1.25;;;;;;;4.63;86.50;99822.78;4439690;32;33430;-85
2023/01/14 07:45:58;;;;;;;0.70;0.70;;;;;;;4.62;86.67;99823.63;4439822;32;34503;-79
2023/01/14 07:48:28;;;;;;;1.50;1.20;;;;;;;4.64;87.20;99819.38;4439670;32;34389;-84
2023/01/14 07:50:56;;;;;;;3.75;1.83;;;;;;;4.45;87.95;99819.84;4439792;32;35210;-84
2023/01/14 07:53:25;;;;;;;3.00;2.80;;;;;;;3.99;90.21;99817.94;4439508;32;33519;-70
2023/01/14 07:55:53;;;;;;;2.47;1.15;;;;;;;4.31;89.57;99825.56;4439555;32;33914;-85
2023/01/14 07:58:23;;;;;;;3.00;2.75;;;;;;;4.51;87.79;99822.53;4439585;32;34904;-84
2023/01/14 08:00:51;;;;;;;6.80;4.65;;;;;;;4.48;88.70;99817.31;4439509;32;34480;-78
2023/01/14 08:03:21;;;;;;;1.50;1.40;;;;;;;5.00;89.13;99820.97;4439608;32;33466;-81
2023/01/14 08:05:50;;;;;;;1.80;1.70;;;;;;;5.30;89.21;99827.53;4439434;32;33997;-70
2023/01/14 08:08:18;;;;;;;2.00;1.90;;;;;;;5.28;89.07;99829.22;4425740;32;35039;-82
2023/01/14 08:10:47;;;;;;;1.15;1.15;;;;;;;5.44;88.63;99831.25;4439539;32;34535;-84
2023/01/14 08:13:15;;;;;;;3.72;1.75;;;;;;;6.04;86.34;99829.69;4439206;32;33732;-69
2023/01/14 08:15:43;;;;;;;0.80;0.80;;;;;;;6.28;83.69;99837.78;4439738;32;33915;-83
2023/01/14 08:18:11;;;;;;;3.03;2.55;;;;;;;6.36;84.30;99836.19;4439379;32;35156;-82
2023/01/14 08:20:40;;;;;;;2.10;2.00;;;;;;;6.36;83.75;99839.63;4439361;32;34576;-84
2023/01/14 08:23:08;;;;;;;2.03;1.62;;;;;;;7.05;84.37;99843.97;4439453;32;33732;-82
2023/01/14 08:25:36;;;;;;;1.17;1.00;;;;;;;7.09;81.91;99836.25;4438025;32;34744;-82
2023/01/14 08:28:05;;;;;;;1.67;1.58;;;;;;;7.49;80.00;99841.00;4439278;32;35201;-82
2023/01/14 08:30:33;;;;;;;1.05;1.02;;;;;;;7.49;81.42;99846.19;4439109;32;34264;-83
2023/01/14 08:33:02;;;;;;;0.60;0.60;;;;;;;7.33;82.81;99846.00;4439361;32;34210;-85
2023/01/14 08:35:30;;;;;;;0.98;0.88;;;;;;;7.51;83.79;99855.69;4439276;32;33867;-83
2023/01/14 08:37:58;;;;;;;3.05;2.85;;;;;;;7.17;84.54;99854.47;4425561;32;34939;-83
2023/01/14 08:40:27;;;;;;;1.17;1.08;;;;;;;7.48;84.44;99854.78;4439012;32;35226;-84
2023/01/14 08:42:55;;;;;;;3.05;2.85;;;;;;;7.94;80.73;99862.97;4439164;32;33794;-69
2023/01/14 08:45:23;;;;;;;0.80;0.80;;;;;;;7.45;82.47;99871.19;4439265;32;33823;-71
2023/01/14 08:47:51;;;;;;;1.17;1.17;;;;;;;7.72;83.83;99873.16;4439249;32;35142;-82
2023/01/14 08:50:20;;;;;;;1.05;1.05;;;;;;;8.58;79.43;99870.41;4439222;32;34443;-82
2023/01/14 08:52:48;;;;;;;0.65;0.65;;;;;;;8.97;77.55;99868.00;4439033;32;34124;-70
2023/01/14 08:55:16;;;;;;;1.10;1.10;;;;;;;9.33;76.54;99872.44;4439228;32;34651;-78
2023/01/14 08:57:45;;;;;;;0.85;0.85;;;;;;;10.38;72.91;99872.56;4438976;32;35873;-69
2023/01/14 09:00:14;;;;;;;1.77;0.85;;;;;;;11.04;69.14;99874.97;4438857;32;34400;-79
2023/01/14 09:02:42;;;;;;;0.98;0.98;;;;;;;10.93;69.39;99868.97;4439095;32;33548;-68
2023/01/14 09:05:13;;;;;;;3.85;1.87;;;;;;;12.23;64.84;99871.63;4438990;32;34082;-68
2023/01/14 09:19:00;;;;;;;1.15;1.15;;;;;;;12.31;62.23;99882.88;4400724;32;34982;-81
2023/01/14 09:21:28;;;;;;;2.80;2.25;;;;;;;11.94;63.86;99889.28;4438908;32;35311;-81
2023/01/14 09:23:57;;;;;;;2.72;2.28;;;;;;;12.38;64.89;99892.41;4424971;32;34237;-85
2023/01/14 09:26:25;;;;;;;1.15;1.05;;;;;;;12.33;63.68;99888.94;4438720;32;34755;-71
2023/01/14 09:28:54;;;;;;;0.70;0.70;;;;;;;12.95;60.07;99880.47;4438753;32;34920;-80
2023/01/14 09:31:22;;;;;;;1.45;1.35;;;;;;;13.46;59.69;99881.63;4438399;32;35360;-79
2023/01/14 09:33:51;;;;;;;1.75;1.40;;;;;;;12.80;60.08;99881.53;4438675;32;33540;-71
2023/01/14 09:36:19;;;;;;;1.23;1.17;;;;;;;12.75;62.06;99875.50;4438147;32;33866;-83
2023/01/14 09:38:47;;;;;;;3.03;2.58;;;;;;;12.66;63.74;99874.69;4438632;32;35956;-82
2023/01/14 09:41:25;;;;;;;1.62;1.52;;;;;;;12.11;64.24;99880.47;4438565;32;34278;-70
2023/01/14 09:43:53;;;;;;;0.88;0.88;;;;;;;12.56;62.98;99867.84;4424940;32;34138;-75
2023/01/14 09:46:25;;;;;;;5.62;3.40;;;;;;;12.68;60.24;99865.09;4438638;32;34723;-81
2023/01/14 09:48:59;;;;;;;1.10;1.08;;;;;;;12.67;61.87;99858.16;4438591;32;35023;-81
2023/01/14 09:51:47;;;;;;;0.70;0.70;;;;;;;12.75;62.02;99858.06;4424773;32;34925;-81
2023/01/14 09:54:21;;;;;;;0.55;0.55;;;;;;;13.56;60.81;99857.94;4424721;32;33526;-72
2023/01/14 09:56:55;;;;;;;1.17;1.08;;;;;;;13.21;57.62;99859.25;4438747;32;33903;-83
2023/01/14 09:59:56;;;;;;;1.00;0.93;;;;;;;12.96;59.20;99867.41;4438426;32;36225;-81
2023/01/14 10:02:50;;;;;;;1.10;1.10;;;;;;;11.88;61.57;99868.41;4433479;32;35214;-84
2023/01/14 10:05:28;;;;;;;2.17;1.62;;;;;;;10.86;67.20;99872.47;4417497;32;34343;-83
2023/01/14 10:07:57;;;;;;;1.65;1.55;;;;;;;11.11;64.07;99866.25;4438417;32;33847;-78
2023/01/14 10:10:36;;;;;;;0.90;0.90;;;;;;;10.77;66.17;99861.19;4438086;32;36009;-70
2023/01/14 10:13:19;;;;;;;1.20;1.10;;;;;;;10.51;67.54;99863.00;4413558;32;35373;-67
2023/01/14 10:15:59;;;;;;;1.00;1.00;;;;;;;10.29;69.03;99859.50;4408990;32;33194;-66
2023/01/14 10:18:56;;;;;;;0.40;0.40;;;;;;;9.47;74.19;99860.34;4419261;32;34053;-67
2023/01/14 10:21:39;;;;;;;0.55;0.55;;;;;;;9.75;73.78;99857.78;4437737;32;35880;-67
2023/01/14 10:24:16;;;;;;;1.75;1.15;;;;;;;10.31;70.48;99861.28;4424381;32;35128;-69
2023/01/14 10:26:47;;;;;;;0.93;0.93;;;;;;;10.06;70.06;99863.03;4423967;32;33426;-82
2023/01/14 10:29:22;;;;;;;1.60;1.35;;;;;;;9.39;72.71;99863.78;4439049;32;33913;-69
2023/01/14 10:31:59;;;;;;;1.42;1.33;;;;;;;9.56;73.59;99862.09;4452793;32;35965;-68
2023/01/14 10:34:33;;;;;;;0.43;0.43;;;;;;;9.38;73.86;99856.87;4439262;32;35092;-84
2023/01/14 10:37:05;;;;;;;0.62;0.62;;;;;;;9.62;74.25;99849.13;4439487;32;33499;-78
2023/01/14 10:39:34;;;;;;;1.20;1.15;;;;;;;9.57;74.81;99847.38;4439264;32;34775;-69
2023/01/14 10:42:03;;;;;;;1.67;1.58;;;;;;;10.39;71.38;99838.72;4452718;32;35048;-67
2023/01/14 10:44:33;;;;;;;2.50;2.15;;;;;;;9.86;74.29;99842.19;4452961;32;34549;-68
2023/01/14 10:47:06;;;;;;;0.52;0.52;;;;;;;11.70;67.56;99845.06;4452807;32;32770;-75
2023/01/14 10:49:50;;;;;;;0.73;0.73;;;;;;;12.07;64.86;99850.03;4442479;32;34053;-72
2023/01/14 10:52:32;;;;;;;1.10;1.02;;;;;;;12.36;62.95;99848.91;4441203;32;35052;-69
2023/01/14 10:55:24;;;;;;;1.62;1.40;;;;;;;11.60;66.49;99846.88;4455168;32;34639;-69
2023/01/14 10:58:07;;;;;;;0.85;0.85;;;;;;;11.81;65.34;99848.47;4441035;32;33520;-68
2023/01/14 11:00:37;;;;;;;1.33;1.30;;;;;;;10.62;67.62;99843.88;4441746;32;33793;-68
2023/01/14 11:03:19;;;;;;;1.05;1.05;;;;;;;11.69;64.55;99835.53;4441396;32;34307;-69
2023/01/14 11:05:54;;;;;;;0.82;0.82;;;;;;;11.21;64.37;99848.84;4455526;32;35117;-69
2023/01/14 11:08:31;;;;;;;0.88;0.82;;;;;;;11.52;62.83;99840.84;4455757;32;34311;-68
2023/01/14 11:11:02;;;;;;;1.50;1.40;;;;;;;10.93;65.94;99850.72;4456025;32;33833;-67
2023/01/14 11:13:36;;;;;;;2.00;1.62;;;;;;;10.52;66.44;99843.91;4441270;32;35934;-68
2023/01/14 11:16:06;;;;;;;0.65;0.60;;;;;;;10.46;66.47;99843.91;4455201;32;34437;-68
2023/01/14 11:18:34;;;;;;;1.48;1.37;;;;;;;10.77;65.35;99842.09;4455142;32;33313;-67
2023/01/14 11:21:20;;;;;;;0.47;0.47;;;;;;;10.73;65.21;99841.25;4455256;32;34486;-68
2023/01/14 11:23:57;;;;;;;1.70;0.75;;;;;;;10.30;67.41;99827.44;4441756;32;35128;-69
2023/01/14 11:26:39;;;;;;;0.57;0.57;;;;;;;10.38;68.18;99823.97;4455385;32;34538;-71
2023/01/14 11:29:24;;;;;;;0.95;0.95;;;;;;;10.19;67.79;99824.84;4426251;32;32313;-69
2023/01/14 11:31:55;;;;;;;7.53;0.85;;;;;;;10.38;67.54;99830.94;4413931;32;32534;-72
2023/01/14 11:34:28;;;;;;;0.45;0.45;;;;;;;11.62;64.10;99818.19;4455174;32;35051;-69
2023/01/14 11:37:18;;;;;;;0.60;0.60;;;;;;;11.57;62.70;99819.06;4454928;32;34416;-70
2023/01/14 11:40:06;;;;;;;0.65;0.65;;;;;;;11.44;61.47;99816.56;4455239;32;34307;-71
2023/01/14 11:42:42;;;;;;;0.90;0.60;;;;;;;10.86;64.52;99818.59;4454904;32;34831;-69
2023/01/14 11:45:10;;;;;;;0.95;0.95;;;;;;;11.21;63.13;99830.59;4455017;32;34905;-76
2023/01/14 11:47:55;;;;;;;1.02;1.02;;;;;;;10.90;63.11;99829.88;4454600;32;34815;-70
2023/01/14 11:50:32;;;;;;;1.30;1.20;;;;;;;10.91;63.92;99818.59;4455129;32;34245;-74
2023/01/14 11:53:00;;;;;;;;;;;;;;;10.99;64.05;99809.87;4454707;32;34861;-78
2023/01/14 11:55:35;;;;;;;1.73;1.62;;;;;;;11.12;62.97;99805.47;4454829;32;36159;-85
2023/01/14 11:58:30;;;;;;;0.43;0.43;;;;;;;10.96;63.59;99801.22;4440759;32;34465;-69
2023/01/14 12:01:04;;;;;;;0.50;0.50;;;;;;;12.84;57.99;99805.66;4455054;32;34155;-70
2023/01/14 12:03:39;;;;;;;0.50;0.50;;;;;;;13.98;54.38;99805.78;4454746;32;34713;-70
2023/01/14 12:06:11;;;;;;;0.70;0.70;;;;;;;15.62;50.98;99798.06;4454739;32;35902;-70
2023/01/14 12:08:44;;;;;;;1.60;1.50;;;;;;;16.01;48.35;99790.16;4441026;32;34249;-69
2023/01/14 12:11:22;;;;;;;0.40;0.40;;;;;;;16.54;46.64;99794.87;4441253;32;33400;-69
2023/01/14 12:16:55;;;;;;;0.70;0.70;;;;;;;17.44;44.21;99794.84;4454850;32;35153;-74
2023/01/14 12:19:27;;;;;;;0.90;0.90;;;;;;;17.22;44.50;99797.28;4441001;32;34560;-68
2023/01/14 12:22:51;;;;;;;0.30;0.30;;;;;;;17.50;43.69;99793.78;4454807;32;33467;-69
2023/01/14 12:25:24;;;;;;;0.65;0.65;;;;;;;17.84;42.92;99792.66;4391200;32;34766;-68
2023/01/14 12:28:13;;;;;;;0.68;0.68;;;;;;;16.97;43.50;99781.34;4431676;32;35025;-68
2023/01/14 12:31:02;;;;;;;0.60;0.60;;;;;;;16.25;46.26;99780.75;4454704;32;34357;-68
2023/01/14 12:34:08;;;;;;;0.57;0.57;;;;;;;16.59;45.78;99777.19;4454454;32;34265;-75
2023/01/14 12:36:44;;;;;;;0.30;0.30;;;;;;;16.16;47.46;99770.50;4453083;32;33924;-80
2023/01/14 12:45:44;;;;;;;1.40;1.30;;;;;;;15.16;48.90;99773.78;4443159;32;34463;-71
2023/01/14 12:48:15;;;;;;;0.62;0.62;;;;;;;14.12;52.83;99764.50;4454386;32;34864;-69